createdAt,value
2019-03-03T00:00:42.662Z,78.95
2019-03-03T00:03:13.615Z,79.26
2019-03-03T00:05:44.788Z,79.07
2019-03-03T00:08:15.999Z,79.13
2019-03-03T00:10:47.427Z,78.99
2019-03-03T00:13:18.038Z,79.28
2019-03-03T00:15:49.190Z,79.48
2019-03-03T00:18:20.074Z,79.46
2019-03-03T00:20:52.406Z,79.62
2019-03-03T00:23:23.768Z,79.37
2019-03-03T00:25:55.500Z,79.46
2019-03-03T00:28:26.799Z,79.33
2019-03-03T00:30:57.959Z,79.38
2019-03-03T00:33:29.028Z,79.56
2019-03-03T00:36:00.186Z,79.81
2019-03-03T00:38:32.632Z,80.00
2019-03-03T00:41:04.954Z,80.14
2019-03-03T00:43:37.850Z,79.89
2019-03-03T00:46:10.709Z,79.64
2019-03-03T00:48:43.498Z,79.72
2019-03-03T00:51:15.934Z,79.89
2019-03-03T00:53:46.417Z,79.80
2019-03-03T00:56:18.897Z,79.90
2019-03-03T00:58:51.154Z,79.83
2019-03-03T01:01:23.820Z,79.66
2019-03-03T01:03:57.331Z,79.52
2019-03-03T01:06:29.719Z,79.49
2019-03-03T01:09:02.113Z,79.47
2019-03-03T01:11:36.616Z,79.73
2019-03-03T01:14:09.030Z,79.65
2019-03-03T01:16:41.447Z,79.68
2019-03-03T01:19:14.156Z,80.18
2019-03-03T01:21:47.145Z,80.14
2019-03-03T01:24:19.552Z,80.34
2019-03-03T01:26:51.194Z,80.22
2019-03-03T01:29:22.020Z,80.08
2019-03-03T01:31:53.908Z,80.56
2019-03-03T01:34:25.068Z,80.69
2019-03-03T01:36:56.369Z,81.11
2019-03-03T01:39:27.172Z,81.36
2019-03-03T01:41:58.166Z,81.09
2019-03-03T01:44:29.233Z,81.06
2019-03-03T01:47:00.032Z,81.70
2019-03-03T01:49:30.898Z,81.30
2019-03-03T01:52:02.137Z,81.67
2019-03-03T01:54:32.897Z,81.59
2019-03-03T01:57:03.737Z,81.33
2019-03-03T01:59:36.194Z,82.26
2019-03-03T02:02:07.194Z,82.44
2019-03-03T02:04:38.362Z,82.35
2019-03-03T02:07:10.518Z,81.95
2019-03-03T02:09:41.839Z,81.91
2019-03-03T02:12:13.740Z,82.52
2019-03-03T02:14:47.283Z,82.68
2019-03-03T02:17:18.297Z,82.70
2019-03-03T02:19:49.734Z,82.42
2019-03-03T02:22:20.745Z,82.59
2019-03-03T02:24:51.853Z,82.17
2019-03-03T02:27:23.215Z,82.03
2019-03-03T02:29:55.965Z,81.96
2019-03-03T02:32:27.168Z,82.24
2019-03-03T02:34:58.809Z,82.40
2019-03-03T02:37:30.111Z,82.52
2019-03-03T02:40:00.990Z,83.02
2019-03-03T02:42:32.158Z,82.99
2019-03-03T02:45:03.186Z,84.47
2019-03-03T02:47:34.267Z,84.41
2019-03-03T02:50:08.562Z,84.66
2019-03-03T02:52:39.575Z,84.09
2019-03-03T02:55:13.117Z,84.43
2019-03-03T02:57:44.446Z,84.46
2019-03-03T03:00:18.606Z,84.75
2019-03-03T03:02:50.706Z,85.28
2019-03-03T03:05:26.108Z,85.18
2019-03-03T03:07:58.927Z,85.07
2019-03-03T03:10:31.305Z,84.94
2019-03-03T03:13:05.446Z,85.33
2019-03-03T03:15:40.542Z,85.21
2019-03-03T03:18:12.972Z,85.29
2019-03-03T03:20:45.544Z,85.36
2019-03-03T03:23:17.981Z,85.08
2019-03-03T03:25:50.232Z,85.21
2019-03-03T03:28:21.095Z,85.00
2019-03-03T03:30:53.529Z,84.90
2019-03-03T03:33:25.930Z,84.82
2019-03-03T03:35:58.253Z,84.90
2019-03-03T03:38:30.366Z,85.02
2019-03-03T03:41:03.003Z,85.14
2019-03-03T03:43:35.487Z,85.09
2019-03-03T03:46:07.576Z,85.12
2019-03-03T03:48:40.241Z,85.47
2019-03-03T03:51:12.910Z,85.65
2019-03-03T03:53:45.405Z,85.48
2019-03-03T03:56:17.794Z,85.54
2019-03-03T03:58:50.372Z,85.79
2019-03-03T04:01:22.827Z,85.66
2019-03-03T04:03:55.402Z,85.51
2019-03-03T04:06:26.280Z,85.00
2019-03-03T04:09:01.727Z,84.79
2019-03-03T04:11:35.062Z,84.66
2019-03-03T04:14:07.791Z,84.57
2019-03-03T04:16:40.321Z,84.67
2019-03-03T04:19:12.637Z,84.85
2019-03-03T04:21:44.774Z,84.70
2019-03-03T04:24:17.116Z,84.98
2019-03-03T04:26:49.520Z,85.00
2019-03-03T04:29:21.699Z,85.06
2019-03-03T04:31:54.207Z,85.07
2019-03-03T04:34:26.554Z,85.25
2019-03-03T04:37:00.487Z,84.88
2019-03-03T04:39:32.863Z,84.73
2019-03-03T04:42:05.495Z,85.24
2019-03-03T04:44:37.700Z,85.62
2019-03-03T04:47:10.100Z,85.95
2019-03-03T04:49:42.731Z,86.09
2019-03-03T04:52:13.430Z,86.04
2019-03-03T04:54:45.891Z,85.70
2019-03-03T04:57:18.630Z,85.85
2019-03-03T04:59:51.000Z,85.83
2019-03-03T05:02:23.560Z,86.03
2019-03-03T05:04:56.494Z,85.78
2019-03-03T05:07:29.100Z,86.12
2019-03-03T05:10:01.699Z,86.12
2019-03-03T05:12:34.320Z,86.29
2019-03-03T05:15:11.779Z,86.19
2019-03-03T05:17:44.524Z,86.11
2019-03-03T05:20:16.548Z,86.05
2019-03-03T05:22:47.409Z,86.11
2019-03-03T05:25:18.300Z,86.05
2019-03-03T05:27:49.325Z,85.95
2019-03-03T05:30:20.696Z,85.59
2019-03-03T05:32:51.681Z,85.51
2019-03-03T05:35:22.959Z,85.34
2019-03-03T05:37:53.752Z,85.27
2019-03-03T05:40:25.080Z,85.21
2019-03-03T05:42:56.343Z,85.06
2019-03-03T05:45:27.303Z,85.15
2019-03-03T05:47:58.009Z,85.01
2019-03-03T05:50:30.445Z,85.10
2019-03-03T05:53:01.717Z,84.96
2019-03-03T05:55:32.995Z,84.88
2019-03-03T05:58:04.070Z,84.92
2019-03-03T06:00:34.912Z,84.90
2019-03-03T06:03:05.662Z,84.91
2019-03-03T06:05:36.344Z,84.86
2019-03-03T06:08:07.324Z,85.19
2019-03-03T06:10:37.970Z,85.87
2019-03-03T06:13:08.882Z,86.31
2019-03-03T06:15:40.681Z,86.27
2019-03-03T06:18:11.658Z,86.14
2019-03-03T06:20:42.321Z,86.53
2019-03-03T06:23:13.608Z,86.90
2019-03-03T06:25:44.480Z,86.88
2019-03-03T06:28:15.618Z,87.11
2019-03-03T06:30:46.863Z,87.63
2019-03-03T06:33:17.951Z,88.21
2019-03-03T06:35:49.155Z,88.76
2019-03-03T06:38:20.787Z,89.21
2019-03-03T06:40:52.061Z,89.45
2019-03-03T06:43:23.199Z,89.99
2019-03-03T06:45:54.559Z,90.56
2019-03-03T06:48:25.282Z,90.64
2019-03-03T06:50:56.258Z,90.68
2019-03-03T06:53:28.089Z,90.90
2019-03-03T06:55:59.517Z,91.32
2019-03-03T06:58:31.061Z,91.46
2019-03-03T07:01:01.876Z,91.79
2019-03-03T07:03:32.892Z,91.76
2019-03-03T07:06:04.360Z,91.90
2019-03-03T07:08:35.292Z,91.76
2019-03-03T07:11:06.822Z,91.89
2019-03-03T07:13:37.826Z,92.15
2019-03-03T07:16:08.965Z,92.54
2019-03-03T07:18:39.920Z,92.59
2019-03-03T07:21:11.029Z,92.62
2019-03-03T07:23:42.088Z,92.64
2019-03-03T07:26:12.999Z,92.45
2019-03-03T07:28:44.006Z,92.50
2019-03-03T07:31:14.958Z,92.43
2019-03-03T07:33:47.046Z,92.25
2019-03-03T07:36:17.777Z,92.19
2019-03-03T07:38:49.400Z,92.30
2019-03-03T07:41:20.403Z,92.38
2019-03-03T07:43:50.961Z,92.42
2019-03-03T07:46:21.406Z,92.44
2019-03-03T07:48:52.174Z,92.40
2019-03-03T07:51:22.725Z,92.38
2019-03-03T07:53:53.577Z,92.24
2019-03-03T07:56:24.029Z,92.04
2019-03-03T07:58:54.643Z,92.12
2019-03-03T08:01:25.141Z,92.21
2019-03-03T08:03:56.026Z,92.23
2019-03-03T08:06:26.839Z,92.15
2019-03-03T08:08:57.385Z,92.10
2019-03-03T08:11:28.153Z,92.08
2019-03-03T08:13:58.722Z,92.04
2019-03-03T08:16:29.235Z,92.06
2019-03-03T08:19:00.212Z,91.88
2019-03-03T08:21:30.821Z,91.60
2019-03-03T08:24:01.365Z,91.44
2019-03-03T08:26:31.952Z,91.25
2019-03-03T08:29:02.623Z,91.13
2019-03-03T08:31:33.582Z,90.73
2019-03-03T08:34:04.167Z,90.58
2019-03-03T08:36:35.054Z,90.44
2019-03-03T08:39:06.529Z,90.19
2019-03-03T08:41:39.483Z,89.92
2019-03-03T08:44:11.690Z,89.93
2019-03-03T08:46:44.058Z,89.83
2019-03-03T08:49:16.496Z,89.67
2019-03-03T08:51:49.684Z,89.11
2019-03-03T08:54:21.843Z,88.80
2019-03-03T08:56:54.087Z,88.38
2019-03-03T08:59:24.294Z,88.21
2019-03-03T09:01:57.081Z,87.63
2019-03-03T09:04:29.131Z,87.47
2019-03-03T09:07:01.435Z,86.90
2019-03-03T09:09:36.297Z,86.34
2019-03-03T09:12:09.874Z,85.77
2019-03-03T09:14:42.124Z,85.62
2019-03-03T09:17:14.426Z,85.38
2019-03-03T09:19:46.570Z,84.95
2019-03-03T09:22:18.906Z,85.00
2019-03-03T09:24:51.178Z,84.75
2019-03-03T09:27:23.441Z,84.70
2019-03-03T09:29:55.566Z,84.74
2019-03-03T09:32:27.761Z,84.12
2019-03-03T09:34:59.921Z,84.08
2019-03-03T09:37:32.129Z,83.63
2019-03-03T09:40:09.420Z,83.52
2019-03-03T09:42:38.242Z,82.94
2019-03-03T09:45:10.853Z,82.72
2019-03-03T09:47:43.024Z,82.45
2019-03-03T09:50:15.325Z,81.48
2019-03-03T09:52:47.594Z,81.42
2019-03-03T09:55:20.007Z,80.86
2019-03-03T09:57:52.202Z,80.24
2019-03-03T10:00:25.306Z,79.75
2019-03-03T10:03:05.209Z,79.15
2019-03-03T10:05:47.969Z,79.11
2019-03-03T10:08:20.123Z,78.31
2019-03-03T10:10:52.234Z,78.10
2019-03-03T10:13:24.402Z,77.42
2019-03-03T10:16:01.802Z,77.42
2019-03-03T10:18:31.081Z,77.16
2019-03-03T10:21:03.396Z,76.75
2019-03-03T10:23:35.577Z,76.88
2019-03-03T10:26:07.921Z,76.56
2019-03-03T10:28:40.753Z,76.73
2019-03-03T10:31:12.965Z,76.45
2019-03-03T10:33:45.244Z,75.99
2019-03-03T10:36:21.279Z,75.88
2019-03-03T10:38:58.319Z,75.66
2019-03-03T10:41:33.521Z,75.30
2019-03-03T10:44:08.457Z,75.13
2019-03-03T10:46:40.753Z,74.98
2019-03-03T10:49:13.281Z,74.87
2019-03-03T10:51:45.762Z,74.34
2019-03-03T10:54:18.081Z,74.61
2019-03-03T10:56:50.240Z,73.96
2019-03-03T10:59:22.497Z,74.09
2019-03-03T11:01:54.682Z,73.26
2019-03-03T11:04:26.834Z,73.28
2019-03-03T11:07:00.921Z,73.32
2019-03-03T11:09:35.441Z,73.39
2019-03-03T11:12:07.490Z,72.39
2019-03-03T11:14:40.070Z,72.12
2019-03-03T11:17:12.561Z,71.50
2019-03-03T11:19:44.928Z,71.18
2019-03-03T11:22:15.404Z,71.19
2019-03-03T11:24:47.827Z,70.58
2019-03-03T11:27:20.098Z,70.28
2019-03-03T11:29:52.505Z,70.15
2019-03-03T11:32:24.697Z,70.07
2019-03-03T11:34:57.074Z,69.11
2019-03-03T11:37:29.548Z,68.54
2019-03-03T11:40:01.850Z,69.02
2019-03-03T11:42:34.684Z,68.29
2019-03-03T11:45:10.084Z,68.15
2019-03-03T11:47:42.317Z,68.17
2019-03-03T11:50:15.005Z,68.12
2019-03-03T11:52:47.248Z,70.78
2019-03-03T11:55:19.475Z,71.13
2019-03-03T11:57:51.613Z,71.87
2019-03-03T12:00:24.098Z,70.70
2019-03-03T12:02:56.700Z,70.21
2019-03-03T12:05:27.268Z,70.79
2019-03-03T12:07:59.413Z,69.80
2019-03-03T12:10:31.708Z,70.35
2019-03-03T12:13:03.988Z,69.27
2019-03-03T12:15:36.757Z,68.69
2019-03-03T12:18:09.308Z,68.66
2019-03-03T12:20:41.636Z,68.08
2019-03-03T12:23:18.268Z,67.95
2019-03-03T12:25:50.573Z,68.27
2019-03-03T12:28:23.652Z,68.20
2019-03-03T12:30:56.132Z,68.57
2019-03-03T12:33:28.605Z,67.93
2019-03-03T12:36:01.030Z,68.31
2019-03-03T12:38:33.149Z,67.49
2019-03-03T12:41:05.284Z,67.67
2019-03-03T12:43:37.468Z,67.52
2019-03-03T12:46:10.786Z,67.75
2019-03-03T12:48:43.236Z,67.88
2019-03-03T12:51:15.316Z,67.97
2019-03-03T12:53:47.440Z,68.15
2019-03-03T12:56:19.603Z,67.97
2019-03-03T12:58:49.950Z,67.97
2019-03-03T13:01:23.833Z,67.74
2019-03-03T13:03:56.203Z,68.21
2019-03-03T13:06:30.358Z,68.63
2019-03-03T13:09:02.150Z,68.52
2019-03-03T13:11:35.956Z,69.20
2019-03-03T13:14:06.307Z,69.49
2019-03-03T13:16:38.884Z,69.97
2019-03-03T13:26:18.947Z,74.06
2019-03-03T13:28:51.106Z,74.98
2019-03-03T13:31:23.324Z,76.16
2019-03-03T13:33:55.588Z,77.11
2019-03-03T13:36:27.851Z,78.74
2019-03-03T13:39:08.128Z,79.03
2019-03-03T13:41:43.255Z,80.09
2019-03-03T13:44:13.679Z,80.59
2019-03-03T13:46:44.310Z,81.95
2019-03-03T13:49:14.694Z,83.10
2019-03-03T13:51:45.409Z,83.88
2019-03-03T13:54:16.157Z,84.38
2019-03-03T13:56:46.620Z,85.03
2019-03-03T13:59:17.170Z,85.63
2019-03-03T14:01:47.587Z,86.05
2019-03-03T14:04:18.035Z,86.05
2019-03-03T14:06:48.546Z,86.46
2019-03-03T14:09:20.516Z,86.74
2019-03-03T14:11:50.978Z,86.61
2019-03-03T14:14:21.380Z,86.99
2019-03-03T14:16:51.851Z,87.08
2019-03-03T14:19:22.260Z,88.03
2019-03-03T14:21:52.983Z,88.28
2019-03-03T14:24:23.450Z,88.45
2019-03-03T14:26:54.028Z,88.45
2019-03-03T14:29:24.348Z,89.36
2019-03-03T14:31:54.814Z,89.38
2019-03-03T14:34:25.517Z,89.20
2019-03-03T14:36:55.929Z,89.41
2019-03-03T14:39:26.620Z,89.19
2019-03-03T14:41:57.009Z,89.09
2019-03-03T14:44:27.490Z,89.22
2019-03-03T14:46:58.023Z,88.98
2019-03-03T14:49:28.667Z,89.17
2019-03-03T14:51:59.210Z,88.99
2019-03-03T14:54:29.661Z,89.05
2019-03-03T14:57:00.550Z,88.87
2019-03-03T14:59:30.926Z,89.01
2019-03-03T15:02:01.376Z,89.36
2019-03-03T15:04:31.728Z,89.02
2019-03-03T15:07:08.491Z,89.44
2019-03-03T15:09:38.947Z,89.70
2019-03-03T15:12:09.581Z,89.86
2019-03-03T15:14:39.969Z,89.84
2019-03-03T15:17:10.409Z,90.06
2019-03-03T15:19:40.995Z,90.44
2019-03-03T15:22:11.493Z,90.73
2019-03-03T15:24:42.019Z,90.51
2019-03-03T15:27:12.758Z,90.99
2019-03-03T15:29:43.121Z,91.06
2019-03-03T15:32:13.623Z,91.18
2019-03-03T15:34:44.217Z,91.35
2019-03-03T15:37:16.108Z,91.56
2019-03-03T15:39:46.988Z,91.52
2019-03-03T15:42:17.778Z,91.62
2019-03-03T15:44:48.277Z,91.73
2019-03-03T15:47:18.740Z,91.83
2019-03-03T15:49:49.465Z,91.76
2019-03-03T15:52:21.988Z,91.75
2019-03-03T15:54:53.994Z,91.96
2019-03-03T15:57:25.600Z,91.90
2019-03-03T15:59:56.226Z,91.84
2019-03-03T16:02:26.886Z,91.92
2019-03-03T16:04:57.377Z,92.20
2019-03-03T16:07:34.263Z,92.17
2019-03-03T16:10:11.960Z,92.19
2019-03-03T16:12:42.529Z,92.06
2019-03-03T16:15:15.444Z,92.04
2019-03-03T16:17:45.869Z,91.64
2019-03-03T16:20:18.311Z,92.03
2019-03-03T16:22:49.049Z,92.07
2019-03-03T16:25:21.544Z,92.09
2019-03-03T16:27:58.089Z,92.03
2019-03-03T16:30:28.878Z,91.87
2019-03-03T16:33:03.074Z,91.78
2019-03-03T16:35:37.048Z,91.71
2019-03-03T16:38:07.421Z,91.91
2019-03-03T16:40:40.133Z,91.84
2019-03-03T16:43:11.719Z,91.89
2019-03-03T16:45:42.441Z,91.78
2019-03-03T16:48:12.970Z,91.73
2019-03-03T16:50:44.765Z,91.72
2019-03-03T16:53:22.079Z,91.75
2019-03-03T16:56:00.938Z,91.50
2019-03-03T16:58:35.597Z,91.58
2019-03-03T17:01:09.059Z,91.39
2019-03-03T17:03:39.530Z,91.40
2019-03-03T17:06:09.961Z,91.43
2019-03-03T17:08:40.480Z,91.33
2019-03-03T17:11:11.000Z,91.34
2019-03-03T17:13:42.902Z,91.56
2019-03-03T17:16:20.571Z,91.37
2019-03-03T17:18:53.210Z,91.53
2019-03-03T17:21:25.175Z,91.31
2019-03-03T17:23:55.754Z,91.32
2019-03-03T17:26:30.052Z,91.23
2019-03-03T17:29:00.586Z,91.21
2019-03-03T17:31:31.059Z,90.76
2019-03-03T17:34:01.749Z,91.06
2019-03-03T17:36:32.450Z,91.02
2019-03-03T17:39:03.580Z,91.06
2019-03-03T17:41:35.942Z,91.25
2019-03-03T17:44:09.783Z,91.46
2019-03-03T17:46:42.509Z,91.55
2019-03-03T17:49:13.995Z,91.65
2019-03-03T17:51:44.660Z,91.80
2019-03-03T17:54:15.881Z,92.04
2019-03-03T17:56:46.399Z,91.97
2019-03-03T17:59:17.175Z,92.26
2019-03-03T18:01:48.355Z,92.25
2019-03-03T18:04:18.888Z,92.36
2019-03-03T18:06:49.628Z,92.41
2019-03-03T18:09:21.327Z,92.31
2019-03-03T18:11:52.018Z,92.48
2019-03-03T18:14:22.616Z,92.54
2019-03-03T18:16:53.165Z,92.66
2019-03-03T18:19:24.916Z,92.68
2019-03-03T18:22:03.477Z,92.78
2019-03-03T18:24:47.364Z,92.79
2019-03-03T18:27:18.923Z,92.85
2019-03-03T18:30:03.242Z,93.10
2019-03-03T18:32:49.821Z,92.92
2019-03-03T18:35:27.999Z,93.04
2019-03-03T18:38:01.026Z,92.98
2019-03-03T18:40:34.227Z,92.92
2019-03-03T18:43:05.708Z,93.05
2019-03-03T18:45:37.566Z,93.05
2019-03-03T18:48:13.439Z,93.12
2019-03-03T18:50:55.914Z,93.17
2019-03-03T18:53:26.332Z,93.26
2019-03-03T18:56:01.686Z,93.37
2019-03-03T18:58:32.986Z,93.23
2019-03-03T19:01:06.216Z,93.30
2019-03-03T19:03:38.987Z,93.31
2019-03-03T19:06:11.490Z,93.35
2019-03-03T19:08:44.366Z,93.27
2019-03-03T19:11:19.015Z,93.34
2019-03-03T19:13:51.103Z,93.48
2019-03-03T19:16:28.086Z,93.52
2019-03-03T19:19:06.794Z,93.39
2019-03-03T19:21:40.340Z,93.37
2019-03-03T19:24:18.449Z,93.41
2019-03-03T19:26:49.928Z,93.36
2019-03-03T19:29:22.565Z,93.13
2019-03-03T19:31:55.527Z,93.13
2019-03-03T19:34:30.033Z,93.20
2019-03-03T19:37:00.666Z,93.18
2019-03-03T19:39:35.739Z,93.15
2019-03-03T19:42:08.843Z,93.12
2019-03-03T19:44:45.977Z,93.10
2019-03-03T19:47:42.927Z,92.86
2019-03-03T19:50:34.295Z,93.07
2019-03-03T19:53:22.260Z,92.96
2019-03-03T19:56:21.174Z,92.69
2019-03-03T19:59:09.617Z,92.80
2019-03-03T20:02:06.289Z,92.64
2019-03-03T20:05:19.587Z,92.85
2019-03-03T20:07:41.433Z,92.59
2019-03-03T20:10:18.464Z,92.78
2019-03-03T20:12:50.456Z,92.67
2019-03-03T20:15:43.220Z,92.52
2019-03-03T20:18:21.967Z,92.72
2019-03-03T20:20:53.668Z,92.76
2019-03-03T20:23:24.656Z,92.77
2019-03-03T20:25:56.471Z,92.78
2019-03-03T20:28:27.611Z,92.78
2019-03-03T20:30:59.878Z,92.63
2019-03-03T20:33:31.199Z,92.71
2019-03-03T20:36:02.467Z,92.73
2019-03-03T20:38:33.682Z,92.53
2019-03-03T20:41:05.105Z,92.50
2019-03-03T20:43:36.033Z,92.68
2019-03-03T20:46:20.144Z,92.49
2019-03-03T20:49:02.462Z,92.45
2019-03-03T20:51:40.430Z,92.58
2019-03-03T20:54:14.835Z,92.48
2019-03-03T20:56:47.353Z,92.61
2019-03-03T20:59:21.028Z,92.26
2019-03-03T21:01:53.072Z,92.47
2019-03-03T21:04:27.871Z,92.26
2019-03-03T21:06:59.871Z,92.42
2019-03-03T21:09:31.071Z,92.41
2019-03-03T21:12:07.632Z,92.16
2019-03-03T21:14:45.045Z,92.29
2019-03-03T21:17:29.029Z,92.24
2019-03-03T21:20:25.503Z,91.86
2019-03-03T21:23:04.429Z,92.10
2019-03-03T21:25:37.709Z,91.84
2019-03-03T21:28:09.257Z,91.94
2019-03-03T21:30:41.079Z,91.84
2019-03-03T21:33:14.016Z,91.54
2019-03-03T21:35:46.729Z,91.45
2019-03-03T21:38:17.836Z,91.53
2019-03-03T21:40:49.788Z,91.53
2019-03-03T21:43:21.060Z,91.46
2019-03-03T21:46:06.073Z,91.51
2019-03-03T21:48:43.477Z,91.30
2019-03-03T21:51:15.234Z,91.39
2019-03-03T21:53:46.898Z,91.23
2019-03-03T21:56:19.898Z,91.23
2019-03-03T21:58:52.435Z,91.06
2019-03-03T22:01:24.734Z,91.19
2019-03-03T22:03:56.155Z,90.78
2019-03-03T22:06:28.856Z,90.86
2019-03-03T22:09:00.919Z,90.92
2019-03-03T22:11:33.702Z,90.80
2019-03-03T22:14:05.734Z,90.78
2019-03-03T22:16:37.779Z,91.04
2019-03-03T22:19:09.324Z,90.82
2019-03-03T22:21:40.835Z,90.95
2019-03-03T22:24:12.940Z,90.77
2019-03-03T22:26:44.390Z,90.56
2019-03-03T22:29:16.455Z,90.54
2019-03-03T22:31:47.429Z,90.45
2019-03-03T22:34:18.797Z,90.36
2019-03-03T22:36:51.423Z,90.34
2019-03-03T22:39:23.670Z,90.17
2019-03-03T22:41:56.081Z,89.97
2019-03-03T22:44:29.720Z,90.17
2019-03-03T22:47:01.844Z,89.93
2019-03-03T22:49:34.559Z,89.91
2019-03-03T22:52:05.914Z,89.80
2019-03-03T22:54:37.357Z,89.71
2019-03-03T22:57:08.920Z,89.74
2019-03-03T22:59:40.366Z,89.80
2019-03-03T23:02:11.199Z,89.71
2019-03-03T23:04:45.759Z,89.71
2019-03-03T23:07:21.036Z,89.65
2019-03-03T23:09:56.264Z,89.16
2019-03-03T23:12:31.795Z,89.17
2019-03-03T23:15:06.155Z,89.20
2019-03-03T23:17:40.914Z,88.89
2019-03-03T23:20:13.714Z,88.73
2019-03-03T23:22:48.035Z,88.67
2019-03-03T23:25:22.754Z,88.59
2019-03-03T23:27:54.955Z,88.15
2019-03-03T23:30:26.955Z,88.10
2019-03-03T23:32:58.194Z,88.07
2019-03-03T23:35:29.755Z,87.96
2019-03-03T23:38:01.555Z,87.88
2019-03-03T23:40:33.113Z,87.83
2019-03-03T23:43:04.822Z,87.62
2019-03-03T23:45:36.551Z,87.29
2019-03-03T23:48:08.431Z,87.40
2019-03-03T23:50:40.950Z,87.14
2019-03-03T23:53:12.689Z,87.06
2019-03-03T23:55:44.532Z,86.30
2019-03-03T23:58:15.714Z,86.16
